MUC | München Airways

 METAR UND TAF INFORMATION

METAR FOR ENTC
ADDS - METARS form results

(0326 UTC 24 January 2019)
Data provider http://aviationweather.gov/metar/data/
 
METAR text: ENTC 240320Z 11003KT 090V150 CAVOK M13/M14 Q1019 RMK WIND 2600FT 18005KT
Conditions at: ENTC (TROMSO/LANGNES , NO) observed 0320 UTC 24 January 2019
Temperature: -13.0°C ( 9°F)
Dewpoint: -14.0°C ( 7°F) [RH = 92%]
Pressure (altimeter): 30.09 inches Hg (1019.0 mb)
Winds: from the ESE (110 degrees) at 3 MPH (3 knots; 1.5 m/s)
Visibility: 6 or more miles (10+ km)
Ceiling: ceiling and visibility are OK
Clouds: unknown
Weather: no significant weather observed at this time

METAR text: ENTC 240250Z 10002KT CAVOK M13/M15 Q1019 RMK WIND 2600FT 16005KT
Conditions at: ENTC (TROMSO/LANGNES , NO) observed 0250 UTC 24 January 2019
Temperature: -13.0°C ( 9°F)
Dewpoint: -15.0°C ( 5°F) [RH = 85%]
Pressure (altimeter): 30.09 inches Hg (1019.0 mb)
Winds: from the E (100 degrees) at 2 MPH (2 knots; 1.0 m/s)
Visibility: 6 or more miles (10+ km)
Ceiling: ceiling and visibility are OK
Clouds: unknown
Weather: no significant weather observed at this time

Forecast for: ENTC (TROMSO/LANGNES , NO)
Text: TAF ENTC 2400/2424 VRB05KT 9999 FEW010
Forecast period: 0000 UTC 24 January 2019 to 0000 UTC 25 January 2019
Forecast type: FROM: standard forecast or significant change
Winds: variable direction winds at 6 MPH (5 knots; 2.6 m/s)
Visibility: 6 or more miles 10+ km)
Ceiling: at least 12,000 feet AGL
Clouds: few clouds at 1000 feet AGL
Weather: no significant weather forecast for this period

 FLUGHAFENKARTE

 RUNWAY INFORMATION
Runway 01 Runway length 7848 ft Runway width 148 ft
Runway elevation 25 ft Runway displaced threshold 0 ft Runway heading 13
Runway 19 Runway length 7848 ft Runway width 148 ft
Runway elevation 13 ft Runway displaced threshold 1286 ft Runway heading 193

 AIRPORT FREQUENCIES
Type APP Name APP Frequency 123.75 MHZ
Type ATIS Name ATIS Frequency 126.125 MHZ
Type TWR Name TWR Frequency 118.3 MHZ

 AIRPORT NEAR NAVIGATION AIDS
Type NDB Name Kobbe Frequency 283 KHZ
Type NDB Name Kvalsund Frequency 362 KHZ
Type NDB Name Lanes Frequency 268 KHZ
Type VOR-DME Name Tromso Frequency 113800 KHZ